sensor_id;sensor_type;location;lat;lon;timestamp;pressure;altitude;pressure_sealevel;temperature;humidity
42247;BME280;27913;42.722;23.268;2022-10-12T00:01:28;95593.56;;;13.76;99.48
42247;BME280;27913;42.722;23.268;2022-10-12T00:03:54;95371.91;;;12.38;100.00
42247;BME280;27913;42.722;23.268;2022-10-12T00:06:24;95592.72;;;13.69;100.00
42247;BME280;27913;42.722;23.268;2022-10-12T00:08:51;95594.91;;;13.65;100.00
42247;BME280;27913;42.722;23.268;2022-10-12T00:11:20;95596.91;;;13.63;100.00
42247;BME280;27913;42.722;23.268;2022-10-12T00:13:47;95498.94;;;13.08;100.00
42247;BME280;27913;42.722;23.268;2022-10-12T00:16:13;95585.50;;;13.56;100.00
42247;BME280;27913;42.722;23.268;2022-10-12T00:18:39;95585.50;;;13.56;100.00
42247;BME280;27913;42.722;23.268;2022-10-12T00:21:13;95583.66;;;13.57;100.00
42247;BME280;27913;42.722;23.268;2022-10-12T00:23:39;95490.53;;;12.97;100.00
42247;BME280;27913;42.722;23.268;2022-10-12T00:26:08;95588.88;;;13.50;100.00
42247;BME280;27913;42.722;23.268;2022-10-12T00:28:35;95583.97;;;13.47;100.00
42247;BME280;27913;42.722;23.268;2022-10-12T00:31:01;95543.94;;;13.21;100.00
42247;BME280;27913;42.722;23.268;2022-10-12T00:33:30;95510.91;;;13.03;100.00
42247;BME280;27913;42.722;23.268;2022-10-12T00:35:56;95595.38;;;13.47;100.00
42247;BME280;27913;42.722;23.268;2022-10-12T00:38:22;95371.44;;;12.13;100.00
42247;BME280;27913;42.722;23.268;2022-10-12T00:40:48;95587.78;;;13.44;100.00
42247;BME280;27913;42.722;23.268;2022-10-12T00:43:30;95585.53;;;13.41;100.00
42247;BME280;27913;42.722;23.268;2022-10-12T00:45:59;95504.28;;;12.92;100.00
42247;BME280;27913;42.722;23.268;2022-10-12T00:48:25;95573.56;;;13.38;100.00
42247;BME280;27913;42.722;23.268;2022-10-12T00:50:52;95581.28;;;13.40;100.00
42247;BME280;27913;42.722;23.268;2022-10-12T00:53:22;95581.09;;;13.41;100.00
42247;BME280;27913;42.722;23.268;2022-10-12T00:55:54;95517.22;;;13.09;100.00
42247;BME280;27913;42.722;23.268;2022-10-12T00:58:22;95363.00;;;12.02;100.00
42247;BME280;27913;42.722;23.268;2022-10-12T01:03:25;95513.72;;;12.80;100.00
42247;BME280;27913;42.722;23.268;2022-10-12T01:05:51;95461.94;;;12.35;100.00
42247;BME280;27913;42.722;23.268;2022-10-12T01:08:17;95497.44;;;12.54;100.00
42247;BME280;27913;42.722;23.268;2022-10-12T01:10:43;95467.22;;;12.35;100.00
42247;BME280;27913;42.722;23.268;2022-10-12T01:13:09;95414.81;;;12.10;100.00
42247;BME280;27913;42.722;23.268;2022-10-12T01:16:04;95564.81;;;13.16;100.00
42247;BME280;27913;42.722;23.268;2022-10-12T01:18:37;95520.88;;;12.86;100.00
42247;BME280;27913;42.722;23.268;2022-10-12T01:21:23;95566.44;;;13.17;100.00
42247;BME280;27913;42.722;23.268;2022-10-12T01:24:16;95578.44;;;13.20;100.00
42247;BME280;27913;42.722;23.268;2022-10-12T01:32:24;95511.97;;;12.87;100.00
42247;BME280;27913;42.722;23.268;2022-10-12T01:34:57;95568.22;;;13.32;100.00
42247;BME280;27913;42.722;23.268;2022-10-12T01:40:43;95532.00;;;13.03;100.00
42247;BME280;27913;42.722;23.268;2022-10-12T01:43:10;95567.09;;;13.19;100.00
42247;BME280;27913;42.722;23.268;2022-10-12T01:45:36;95560.97;;;13.19;100.00
42247;BME280;27913;42.722;23.268;2022-10-12T01:48:03;95547.91;;;13.10;100.00
42247;BME280;27913;42.722;23.268;2022-10-12T01:51:01;95472.13;;;12.60;100.00
42247;BME280;27913;42.722;23.268;2022-10-12T01:53:32;95518.47;;;12.91;100.00
42247;BME280;27913;42.722;23.268;2022-10-12T02:01:51;95572.44;;;13.26;100.00
42247;BME280;27913;42.722;23.268;2022-10-12T02:04:51;95531.19;;;13.03;100.00
42247;BME280;27913;42.722;23.268;2022-10-12T02:07:45;95546.06;;;13.11;100.00
42247;BME280;27913;42.722;23.268;2022-10-12T02:10:16;95530.16;;;13.04;100.00
42247;BME280;27913;42.722;23.268;2022-10-12T02:12:46;95594.50;;;13.40;100.00
42247;BME280;27913;42.722;23.268;2022-10-12T02:15:15;95549.72;;;13.10;100.00
42247;BME280;27913;42.722;23.268;2022-10-12T02:17:43;95536.22;;;12.98;100.00
42247;BME280;27913;42.722;23.268;2022-10-12T02:20:13;95586.88;;;13.30;100.00
42247;BME280;27913;42.722;23.268;2022-10-12T02:22:41;95592.72;;;13.25;100.00
42247;BME280;27913;42.722;23.268;2022-10-12T02:25:11;95603.09;;;13.27;100.00
42247;BME280;27913;42.722;23.268;2022-10-12T02:27:42;95464.84;;;12.40;100.00
42247;BME280;27913;42.722;23.268;2022-10-12T02:30:10;95597.75;;;13.20;100.00
42247;BME280;27913;42.722;23.268;2022-10-12T02:33:12;95566.34;;;13.03;100.00
42247;BME280;27913;42.722;23.268;2022-10-12T02:35:53;95596.81;;;13.28;100.00
42247;BME280;27913;42.722;23.268;2022-10-12T02:41:16;95463.69;;;12.50;100.00
42247;BME280;27913;42.722;23.268;2022-10-12T02:43:59;95512.16;;;12.86;100.00
42247;BME280;27913;42.722;23.268;2022-10-12T02:46:27;95589.16;;;13.33;100.00
42247;BME280;27913;42.722;23.268;2022-10-12T02:48:55;95546.06;;;13.11;100.00
42247;BME280;27913;42.722;23.268;2022-10-12T02:51:25;95596.50;;;13.38;100.00
42247;BME280;27913;42.722;23.268;2022-10-12T02:53:53;95557.91;;;13.15;100.00
42247;BME280;27913;42.722;23.268;2022-10-12T02:56:19;95529.94;;;12.99;100.00
42247;BME280;27913;42.722;23.268;2022-10-12T02:58:45;95552.63;;;13.15;100.00
42247;BME280;27913;42.722;23.268;2022-10-12T03:01:12;95549.78;;;13.16;100.00
42247;BME280;27913;42.722;23.268;2022-10-12T03:03:38;95583.69;;;13.35;100.00
42247;BME280;27913;42.722;23.268;2022-10-12T03:06:05;95534.03;;;13.01;100.00
42247;BME280;27913;42.722;23.268;2022-10-12T03:08:30;95550.59;;;13.17;100.00
42247;BME280;27913;42.722;23.268;2022-10-12T03:11:04;95576.81;;;13.40;100.00
42247;BME280;27913;42.722;23.268;2022-10-12T03:13:30;95502.22;;;12.88;100.00
42247;BME280;27913;42.722;23.268;2022-10-12T03:16:09;95596.56;;;13.45;100.00
42247;BME280;27913;42.722;23.268;2022-10-12T03:18:34;95522.44;;;13.02;100.00
42247;BME280;27913;42.722;23.268;2022-10-12T03:21:00;95589.22;;;13.40;100.00
42247;BME280;27913;42.722;23.268;2022-10-12T03:23:26;95581.47;;;13.38;100.00
42247;BME280;27913;42.722;23.268;2022-10-12T03:25:51;95549.34;;;13.13;100.00
42247;BME280;27913;42.722;23.268;2022-10-12T03:28:17;95553.75;;;13.05;100.00
42247;BME280;27913;42.722;23.268;2022-10-12T03:30:44;95591.50;;;13.21;100.00
42247;BME280;27913;42.722;23.268;2022-10-12T03:33:10;95551.22;;;12.97;100.00
42247;BME280;27913;42.722;23.268;2022-10-12T03:35:36;95596.94;;;13.20;100.00
42247;BME280;27913;42.722;23.268;2022-10-12T03:38:01;95439.06;;;12.20;100.00
42247;BME280;27913;42.722;23.268;2022-10-12T03:40:27;95588.84;;;13.21;100.00
42247;BME280;27913;42.722;23.268;2022-10-12T03:42:52;95587.84;;;13.22;100.00
42247;BME280;27913;42.722;23.268;2022-10-12T03:45:18;95600.00;;;13.23;100.00
42247;BME280;27913;42.722;23.268;2022-10-12T03:47:43;95561.25;;;13.02;100.00
42247;BME280;27913;42.722;23.268;2022-10-12T03:50:09;95561.50;;;13.07;100.00
42247;BME280;27913;42.722;23.268;2022-10-12T03:52:34;95542.00;;;12.86;99.78
42247;BME280;27913;42.722;23.268;2022-10-12T03:55:00;95486.59;;;12.49;99.37
42247;BME280;27913;42.722;23.268;2022-10-12T03:57:26;95597.13;;;13.18;99.46
42247;BME280;27913;42.722;23.268;2022-10-12T03:59:51;95485.00;;;12.48;99.51
42247;BME280;27913;42.722;23.268;2022-10-12T04:02:17;95591.03;;;13.18;99.24
42247;BME280;27913;42.722;23.268;2022-10-12T04:04:43;95597.13;;;13.18;99.19
42247;BME280;27913;42.722;23.268;2022-10-12T04:07:08;95552.78;;;12.91;98.95
42247;BME280;27913;42.722;23.268;2022-10-12T04:09:34;95597.38;;;13.01;99.07
42247;BME280;27913;42.722;23.268;2022-10-12T04:12:00;95566.31;;;12.82;100.00
42247;BME280;27913;42.722;23.268;2022-10-12T04:14:25;95599.25;;;13.08;100.00
42247;BME280;27913;42.722;23.268;2022-10-12T04:16:54;95508.47;;;12.43;100.00
42247;BME280;27913;42.722;23.268;2022-10-12T04:19:20;95452.72;;;12.09;100.00
42247;BME280;27913;42.722;23.268;2022-10-12T04:21:45;95594.81;;;13.08;100.00
42247;BME280;27913;42.722;23.268;2022-10-12T04:24:11;95609.44;;;13.11;100.00
42247;BME280;27913;42.722;23.268;2022-10-12T04:26:36;95601.97;;;13.14;100.00
42247;BME280;27913;42.722;23.268;2022-10-12T04:29:02;95608.66;;;13.10;100.00
42247;BME280;27913;42.722;23.268;2022-10-12T04:31:28;95579.56;;;12.88;100.00
42247;BME280;27913;42.722;23.268;2022-10-12T04:33:53;95616.63;;;13.17;100.00
42247;BME280;27913;42.722;23.268;2022-10-12T04:36:27;95616.44;;;13.19;100.00
42247;BME280;27913;42.722;23.268;2022-10-12T04:38:53;95548.94;;;12.72;100.00
42247;BME280;27913;42.722;23.268;2022-10-12T04:41:19;95585.38;;;12.99;100.00
42247;BME280;27913;42.722;23.268;2022-10-12T04:43:44;95622.38;;;13.05;100.00
42247;BME280;27913;42.722;23.268;2022-10-12T04:46:10;95569.91;;;12.59;100.00
42247;BME280;27913;42.722;23.268;2022-10-12T04:48:36;95625.59;;;12.79;100.00
42247;BME280;27913;42.722;23.268;2022-10-12T04:51:02;95622.50;;;12.75;100.00
42247;BME280;27913;42.722;23.268;2022-10-12T04:53:28;95616.94;;;12.70;100.00
42247;BME280;27913;42.722;23.268;2022-10-12T04:55:53;95568.31;;;12.42;100.00
42247;BME280;27913;42.722;23.268;2022-10-12T04:58:19;95582.84;;;12.53;100.00
42247;BME280;27913;42.722;23.268;2022-10-12T05:00:47;95634.75;;;12.83;100.00
42247;BME280;27913;42.722;23.268;2022-10-12T05:03:12;95512.19;;;12.12;100.00
42247;BME280;27913;42.722;23.268;2022-10-12T05:05:38;95620.56;;;12.84;100.00
42247;BME280;27913;42.722;23.268;2022-10-12T05:08:04;95585.81;;;12.65;100.00
42247;BME280;27913;42.722;23.268;2022-10-12T05:10:29;95594.91;;;12.78;100.00
42247;BME280;27913;42.722;23.268;2022-10-12T05:12:55;95639.25;;;13.04;100.00
42247;BME280;27913;42.722;23.268;2022-10-12T05:15:20;95603.91;;;12.84;100.00
42247;BME280;27913;42.722;23.268;2022-10-12T05:17:46;95631.44;;;12.96;100.00
42247;BME280;27913;42.722;23.268;2022-10-12T05:20:11;95639.63;;;13.01;100.00
42247;BME280;27913;42.722;23.268;2022-10-12T05:22:37;95645.09;;;13.00;100.00
42247;BME280;27913;42.722;23.268;2022-10-12T05:25:03;95586.75;;;12.58;100.00
42247;BME280;27913;42.722;23.268;2022-10-12T05:27:29;95621.66;;;12.75;100.00
42247;BME280;27913;42.722;23.268;2022-10-12T05:29:55;95613.03;;;12.66;100.00
42247;BME280;27913;42.722;23.268;2022-10-12T05:32:20;95614.84;;;12.65;100.00
42247;BME280;27913;42.722;23.268;2022-10-12T05:34:46;95538.72;;;12.10;100.00
42247;BME280;27913;42.722;23.268;2022-10-12T05:37:11;95634.84;;;12.75;100.00
42247;BME280;27913;42.722;23.268;2022-10-12T05:39:37;95647.66;;;12.93;100.00
42247;BME280;27913;42.722;23.268;2022-10-12T05:42:02;95595.22;;;12.53;100.00
42247;BME280;27913;42.722;23.268;2022-10-12T05:44:28;95663.19;;;13.03;100.00
42247;BME280;27913;42.722;23.268;2022-10-12T05:46:54;95630.28;;;12.84;100.00
42247;BME280;27913;42.722;23.268;2022-10-12T05:49:19;95663.72;;;13.13;100.00
42247;BME280;27913;42.722;23.268;2022-10-12T05:51:45;95612.53;;;12.77;100.00
42247;BME280;27913;42.722;23.268;2022-10-12T05:54:10;95615.09;;;12.71;100.00
42247;BME280;27913;42.722;23.268;2022-10-12T05:56:35;95560.06;;;12.30;100.00
42247;BME280;27913;42.722;23.268;2022-10-12T05:59:01;95674.47;;;12.97;100.00
42247;BME280;27913;42.722;23.268;2022-10-12T06:01:28;95512.63;;;11.85;100.00
42247;BME280;27913;42.722;23.268;2022-10-12T06:03:53;95681.88;;;12.86;100.00
42247;BME280;27913;42.722;23.268;2022-10-12T06:06:19;95594.25;;;12.24;100.00
42247;BME280;27913;42.722;23.268;2022-10-12T06:08:45;95574.81;;;12.10;100.00
42247;BME280;27913;42.722;23.268;2022-10-12T06:11:10;95691.28;;;12.74;100.00
42247;BME280;27913;42.722;23.268;2022-10-12T06:13:36;95657.19;;;12.42;100.00
42247;BME280;27913;42.722;23.268;2022-10-12T06:16:01;95653.28;;;12.38;100.00
42247;BME280;27913;42.722;23.268;2022-10-12T06:18:27;95630.25;;;12.16;100.00
42247;BME280;27913;42.722;23.268;2022-10-12T06:20:53;95693.94;;;12.59;100.00
42247;BME280;27913;42.722;23.268;2022-10-12T06:23:20;95664.56;;;12.31;100.00
42247;BME280;27913;42.722;23.268;2022-10-12T06:25:48;95698.84;;;12.47;100.00
42247;BME280;27913;42.722;23.268;2022-10-12T06:28:15;95555.66;;;11.47;100.00
42247;BME280;27913;42.722;23.268;2022-10-12T06:30:41;95692.66;;;12.39;100.00
42247;BME280;27913;42.722;23.268;2022-10-12T06:33:07;95690.38;;;12.36;100.00
42247;BME280;27913;42.722;23.268;2022-10-12T06:35:33;95704.31;;;12.45;100.00
42247;BME280;27913;42.722;23.268;2022-10-12T06:37:58;95705.56;;;12.49;100.00
42247;BME280;27913;42.722;23.268;2022-10-12T06:40:24;95700.75;;;12.53;100.00
42247;BME280;27913;42.722;23.268;2022-10-12T06:42:50;95692.38;;;12.49;100.00
42247;BME280;27913;42.722;23.268;2022-10-12T06:45:16;95710.84;;;12.64;100.00
42247;BME280;27913;42.722;23.268;2022-10-12T06:47:41;95665.56;;;12.46;100.00
42247;BME280;27913;42.722;23.268;2022-10-12T06:50:08;95598.34;;;12.11;100.00
42247;BME280;27913;42.722;23.268;2022-10-12T06:52:33;95690.34;;;12.82;100.00
42247;BME280;27913;42.722;23.268;2022-10-12T06:54:59;95660.91;;;12.63;100.00
42247;BME280;27913;42.722;23.268;2022-10-12T06:57:24;95678.63;;;12.69;100.00
42247;BME280;27913;42.722;23.268;2022-10-12T06:59:50;95684.63;;;12.78;100.00
42247;BME280;27913;42.722;23.268;2022-10-12T07:02:15;95697.09;;;12.84;100.00
42247;BME280;27913;42.722;23.268;2022-10-12T07:04:41;95600.09;;;12.19;100.00
42247;BME280;27913;42.722;23.268;2022-10-12T07:07:07;95723.78;;;12.89;100.00
42247;BME280;27913;42.722;23.268;2022-10-12T07:09:32;95722.38;;;12.93;100.00
42247;BME280;27913;42.722;23.268;2022-10-12T07:11:58;95725.03;;;12.93;100.00
42247;BME280;27913;42.722;23.268;2022-10-12T07:14:23;95622.53;;;12.30;100.00
42247;BME280;27913;42.722;23.268;2022-10-12T07:16:49;95708.81;;;12.97;100.00
42247;BME280;27913;42.722;23.268;2022-10-12T07:19:15;95683.81;;;12.77;100.00
42247;BME280;27913;42.722;23.268;2022-10-12T07:21:40;95687.91;;;12.80;100.00
42247;BME280;27913;42.722;23.268;2022-10-12T07:24:06;95718.84;;;13.01;100.00
42247;BME280;27913;42.722;23.268;2022-10-12T07:26:32;95700.88;;;12.97;100.00
42247;BME280;27913;42.722;23.268;2022-10-12T07:28:57;95628.88;;;12.66;100.00
42247;BME280;27913;42.722;23.268;2022-10-12T07:31:23;95721.31;;;13.25;100.00
42247;BME280;27913;42.722;23.268;2022-10-12T07:33:48;95713.31;;;13.18;98.89
42247;BME280;27913;42.722;23.268;2022-10-12T07:36:14;95642.84;;;12.82;99.11
42247;BME280;27913;42.722;23.268;2022-10-12T07:38:40;95687.47;;;13.13;98.50
42247;BME280;27913;42.722;23.268;2022-10-12T07:41:09;95726.00;;;13.45;98.86
42247;BME280;27913;42.722;23.268;2022-10-12T07:43:35;95726.06;;;13.51;97.98
42247;BME280;27913;42.722;23.268;2022-10-12T07:46:02;95703.44;;;13.42;97.75
42247;BME280;27913;42.722;23.268;2022-10-12T07:48:28;95719.44;;;13.56;97.16
42247;BME280;27913;42.722;23.268;2022-10-12T07:50:54;95679.22;;;13.38;97.08
42247;BME280;27913;42.722;23.268;2022-10-12T07:53:19;95672.09;;;13.39;96.63
42247;BME280;27913;42.722;23.268;2022-10-12T07:55:45;95690.81;;;13.59;96.19
42247;BME280;27913;42.722;23.268;2022-10-12T07:58:11;95690.88;;;13.66;95.91
42247;BME280;27913;42.722;23.268;2022-10-12T08:00:37;95630.41;;;13.34;95.24
42247;BME280;27913;42.722;23.268;2022-10-12T08:03:03;95725.34;;;14.01;94.69
42247;BME280;27913;42.722;23.268;2022-10-12T08:05:28;95723.94;;;14.06;94.06
42247;BME280;27913;42.722;23.268;2022-10-12T08:07:54;95664.44;;;13.66;94.10
42247;BME280;27913;42.722;23.268;2022-10-12T08:10:20;95647.75;;;13.44;94.41
42247;BME280;27913;42.722;23.268;2022-10-12T08:12:46;95724.41;;;13.87;94.86
42247;BME280;27913;42.722;23.268;2022-10-12T08:15:12;95724.66;;;13.93;94.86
42247;BME280;27913;42.722;23.268;2022-10-12T08:17:38;95634.56;;;13.44;94.38
42247;BME280;27913;42.722;23.268;2022-10-12T08:20:04;95728.00;;;14.01;94.30
42247;BME280;27913;42.722;23.268;2022-10-12T08:22:30;95730.00;;;13.99;94.60
42247;BME280;27913;42.722;23.268;2022-10-12T08:24:55;95691.19;;;13.78;95.10
42247;BME280;27913;42.722;23.268;2022-10-12T08:27:21;95695.28;;;13.81;95.25
42247;BME280;27913;42.722;23.268;2022-10-12T08:29:46;95733.53;;;14.07;94.60
42247;BME280;27913;42.722;23.268;2022-10-12T08:32:12;95686.91;;;13.77;95.53
42247;BME280;27913;42.722;23.268;2022-10-12T08:34:37;95682.38;;;13.71;95.60
42247;BME280;27913;42.722;23.268;2022-10-12T08:37:03;95716.63;;;14.08;95.85
42247;BME280;27913;42.722;23.268;2022-10-12T08:39:29;95724.81;;;14.13;94.90
42247;BME280;27913;42.722;23.268;2022-10-12T08:42:07;95713.53;;;14.26;94.78
42247;BME280;27913;42.722;23.268;2022-10-12T08:47:31;95679.22;;;14.11;94.61
42247;BME280;27913;42.722;23.268;2022-10-12T08:49:59;95678.22;;;14.12;93.24
42247;BME280;27913;42.722;23.268;2022-10-12T08:52:30;95671.28;;;14.11;94.44
42247;BME280;27913;42.722;23.268;2022-10-12T08:55:17;95616.19;;;13.79;93.98
42247;BME280;27913;42.722;23.268;2022-10-12T08:57:44;95708.91;;;14.35;94.99
42247;BME280;27913;42.722;23.268;2022-10-12T09:00:16;95710.56;;;14.43;94.21
42247;BME280;27913;42.722;23.268;2022-10-12T09:03:09;95656.72;;;14.22;93.07
42247;BME280;27913;42.722;23.268;2022-10-12T09:05:42;95649.88;;;14.34;92.78
42247;BME280;27913;42.722;23.268;2022-10-12T09:08:21;95707.72;;;14.80;92.39
42247;BME280;27913;42.722;23.268;2022-10-12T09:11:03;95712.28;;;14.86;92.11
42247;BME280;27913;42.722;23.268;2022-10-12T09:16:18;95674.53;;;14.77;91.30
42247;BME280;27913;42.722;23.268;2022-10-12T09:18:49;95687.03;;;14.90;89.86
42247;BME280;27913;42.722;23.268;2022-10-12T09:21:17;95710.94;;;15.11;90.24
42247;BME280;27913;42.722;23.268;2022-10-12T09:23:43;95709.31;;;15.09;90.18
42247;BME280;27913;42.722;23.268;2022-10-12T09:28:53;95619.34;;;14.74;90.31
42247;BME280;27913;42.722;23.268;2022-10-12T09:34:13;95608.97;;;14.79;87.87
42247;BME280;27913;42.722;23.268;2022-10-12T09:36:40;95715.34;;;15.45;86.42
42247;BME280;27913;42.722;23.268;2022-10-12T09:39:14;95678.81;;;15.34;85.45
42247;BME280;27913;42.722;23.268;2022-10-12T09:41:43;95682.09;;;15.43;85.52
42247;BME280;27913;42.722;23.268;2022-10-12T09:44:15;95683.75;;;15.51;84.62
42247;BME280;27913;42.722;23.268;2022-10-12T09:46:52;95611.94;;;15.18;83.61
42247;BME280;27913;42.722;23.268;2022-10-12T09:49:19;95710.47;;;15.63;85.00
42247;BME280;27913;42.722;23.268;2022-10-12T09:51:45;95713.53;;;15.60;85.67
42247;BME280;27913;42.722;23.268;2022-10-12T09:54:18;95651.66;;;15.18;84.49
42247;BME280;27913;42.722;23.268;2022-10-12T09:56:50;95680.06;;;15.45;84.51
42247;BME280;27913;42.722;23.268;2022-10-12T09:59:46;95653.97;;;15.35;84.69
42247;BME280;27913;42.722;23.268;2022-10-12T10:02:20;95677.84;;;15.55;84.39
42247;BME280;27913;42.722;23.268;2022-10-12T10:04:47;95705.78;;;15.92;83.97
42247;BME280;27913;42.722;23.268;2022-10-12T10:07:20;95667.47;;;15.81;83.50
42247;BME280;27913;42.722;23.268;2022-10-12T10:10:01;95697.69;;;16.00;83.88
42247;BME280;27913;42.722;23.268;2022-10-12T10:12:28;95683.16;;;15.89;84.19
42247;BME280;27913;42.722;23.268;2022-10-12T10:14:56;95635.03;;;15.65;82.74
42247;BME280;27913;42.722;23.268;2022-10-12T10:19:50;95566.50;;;15.35;81.05
42247;BME280;27913;42.722;23.268;2022-10-12T10:22:17;95646.84;;;15.97;80.00
42247;BME280;27913;42.722;23.268;2022-10-12T10:24:49;95693.81;;;16.23;78.53
42247;BME280;27913;42.722;23.268;2022-10-12T10:27:36;95649.09;;;15.86;79.74
42247;BME280;27913;42.722;23.268;2022-10-12T10:30:22;95675.81;;;15.98;80.12
42247;BME280;27913;42.722;23.268;2022-10-12T10:33:06;95598.53;;;15.47;80.19
42247;BME280;27913;42.722;23.268;2022-10-12T10:35:32;95678.72;;;16.03;79.53
42247;BME280;27913;42.722;23.268;2022-10-12T10:37:57;95639.28;;;15.87;79.49
42247;BME280;27913;42.722;23.268;2022-10-12T10:40:29;95666.25;;;16.17;78.21
42247;BME280;27913;42.722;23.268;2022-10-12T10:42:58;95644.41;;;16.09;77.89
42247;BME280;27913;42.722;23.268;2022-10-12T10:45:33;95665.84;;;16.07;77.68
42247;BME280;27913;42.722;23.268;2022-10-12T10:48:08;95603.22;;;15.65;78.71
42247;BME280;27913;42.722;23.268;2022-10-12T10:50:40;95666.88;;;16.13;78.68
42247;BME280;27913;42.722;23.268;2022-10-12T10:53:19;95579.75;;;15.62;79.46
42247;BME280;27913;42.722;23.268;2022-10-12T11:01:27;95571.59;;;15.57;79.27
42247;BME280;27913;42.722;23.268;2022-10-12T11:04:03;95635.03;;;15.86;80.32
42247;BME280;27913;42.722;23.268;2022-10-12T11:06:37;95583.00;;;15.71;79.20
42247;BME280;27913;42.722;23.268;2022-10-12T11:09:10;95599.09;;;15.83;78.97
42247;BME280;27913;42.722;23.268;2022-10-12T11:11:37;95532.06;;;15.49;78.45
42247;BME280;27913;42.722;23.268;2022-10-12T11:14:15;95627.88;;;15.93;79.06
42247;BME280;27913;42.722;23.268;2022-10-12T11:16:55;95630.13;;;16.10;79.05
42247;BME280;27913;42.722;23.268;2022-10-12T11:22:18;95619.50;;;16.23;78.16
42247;BME280;27913;42.722;23.268;2022-10-12T11:25:04;95575.44;;;15.95;77.21
42247;BME280;27913;42.722;23.268;2022-10-12T11:27:34;95640.03;;;16.48;77.31
42247;BME280;27913;42.722;23.268;2022-10-12T11:30:04;95644.13;;;16.51;77.11
42247;BME280;27913;42.722;23.268;2022-10-12T11:32:33;95637.38;;;16.48;76.20
42247;BME280;27913;42.722;23.268;2022-10-12T11:35:03;95638.59;;;16.59;76.67
42247;BME280;27913;42.722;23.268;2022-10-12T11:37:39;95595.56;;;16.37;75.62
42247;BME280;27913;42.722;23.268;2022-10-12T11:40:35;95605.97;;;16.38;75.63
42247;BME280;27913;42.722;23.268;2022-10-12T11:42:59;95627.53;;;16.62;75.76
42247;BME280;27913;42.722;23.268;2022-10-12T11:45:38;95629.03;;;16.45;76.97
42247;BME280;27913;42.722;23.268;2022-10-12T11:48:12;95580.13;;;16.06;76.81
42247;BME280;27913;42.722;23.268;2022-10-12T11:50:41;95552.84;;;15.72;76.07
42247;BME280;27913;42.722;23.268;2022-10-12T11:55:59;95599.50;;;16.21;76.34
42247;BME280;27913;42.722;23.268;2022-10-12T11:58:30;95584.41;;;16.14;76.41
42247;BME280;27913;42.722;23.268;2022-10-12T12:01:05;95601.69;;;16.30;75.64
42247;BME280;27913;42.722;23.268;2022-10-12T12:04:06;95600.28;;;16.35;76.28
42247;BME280;27913;42.722;23.268;2022-10-12T12:11:29;95633.03;;;16.67;75.75
42247;BME280;27913;42.722;23.268;2022-10-12T12:16:47;95618.16;;;16.60;75.22
42247;BME280;27913;42.722;23.268;2022-10-12T12:19:38;95596.13;;;16.52;74.57
42247;BME280;27913;42.722;23.268;2022-10-12T12:24:39;95596.13;;;16.52;75.17
42247;BME280;27913;42.722;23.268;2022-10-12T12:29:52;95544.00;;;16.12;74.19
42247;BME280;27913;42.722;23.268;2022-10-12T12:32:18;95636.47;;;16.75;73.97
42247;BME280;27913;42.722;23.268;2022-10-12T12:34:56;95599.06;;;16.37;72.50
42247;BME280;27913;42.722;23.268;2022-10-12T12:37:25;95601.91;;;16.42;72.70
42247;BME280;27913;42.722;23.268;2022-10-12T12:39:55;95574.59;;;16.22;73.23
42247;BME280;27913;42.722;23.268;2022-10-12T12:42:28;95644.22;;;16.76;73.16
42247;BME280;27913;42.722;23.268;2022-10-12T12:47:56;95635.28;;;16.64;73.00
42247;BME280;27913;42.722;23.268;2022-10-12T12:50:31;95556.03;;;16.22;72.20
42247;BME280;27913;42.722;23.268;2022-10-12T13:09:27;95606.00;;;16.84;73.07
42247;BME280;27913;42.722;23.268;2022-10-12T13:12:17;95641.66;;;17.09;73.32
42247;BME280;27913;42.722;23.268;2022-10-12T13:17:53;95539.16;;;16.48;71.96
42247;BME280;27913;42.722;23.268;2022-10-12T13:20:25;95587.91;;;16.67;73.31
42247;BME280;27913;42.722;23.268;2022-10-12T13:22:53;95637.16;;;17.09;73.56
42247;BME280;27913;42.722;23.268;2022-10-12T13:25:40;95605.53;;;16.94;72.84
42247;BME280;27913;42.722;23.268;2022-10-12T13:28:21;95604.16;;;16.92;72.98
42247;BME280;27913;42.722;23.268;2022-10-12T13:31:03;95643.47;;;17.15;72.88
42247;BME280;27913;42.722;23.268;2022-10-12T13:33:36;95642.69;;;17.14;72.97
42247;BME280;27913;42.722;23.268;2022-10-12T13:36:29;95608.63;;;16.91;72.61
42247;BME280;27913;42.722;23.268;2022-10-12T13:38:57;95616.16;;;16.94;72.21
42247;BME280;27913;42.722;23.268;2022-10-12T13:41:24;95646.97;;;17.09;71.99
42247;BME280;27913;42.722;23.268;2022-10-12T13:43:53;95619.94;;;16.73;72.51
42247;BME280;27913;42.722;23.268;2022-10-12T13:46:43;95604.31;;;16.51;73.56
42247;BME280;27913;42.722;23.268;2022-10-12T13:49:18;95566.81;;;16.20;73.61
42247;BME280;27913;42.722;23.268;2022-10-12T13:51:47;95623.72;;;16.51;74.50
42247;BME280;27913;42.722;23.268;2022-10-12T13:54:40;95643.06;;;16.65;74.37
42247;BME280;27913;42.722;23.268;2022-10-12T13:59:56;95532.63;;;15.85;74.57
42247;BME280;27913;42.722;23.268;2022-10-12T14:02:24;95638.03;;;16.44;74.70
42247;BME280;27913;42.722;23.268;2022-10-12T14:04:59;95628.84;;;16.33;75.26
42247;BME280;27913;42.722;23.268;2022-10-12T14:07:37;95585.47;;;16.00;75.69
42247;BME280;27913;42.722;23.268;2022-10-12T14:10:14;95607.47;;;16.14;75.77
42247;BME280;27913;42.722;23.268;2022-10-12T14:12:43;95600.75;;;16.04;76.38
42247;BME280;27913;42.722;23.268;2022-10-12T14:15:10;95612.94;;;16.26;75.71
42247;BME280;27913;42.722;23.268;2022-10-12T14:17:45;95510.41;;;15.72;75.41
42247;BME280;27913;42.722;23.268;2022-10-12T14:20:32;95583.13;;;16.30;74.84
42247;BME280;27913;42.722;23.268;2022-10-12T14:23:14;95574.41;;;16.23;74.83